createdAt,value
2022-12-11T00:02:45.167Z,34.47
2022-12-11T00:07:38.904Z,32.73
2022-12-11T00:12:32.419Z,36.30
2022-12-11T00:17:27.175Z,34.07
2022-12-11T00:22:20.622Z,34.07
2022-12-11T00:27:14.125Z,34.70
2022-12-11T00:32:07.895Z,33.97
2022-12-11T00:37:02.818Z,32.50
2022-12-11T00:41:56.317Z,34.17
2022-12-11T00:46:49.601Z,36.40
2022-12-11T00:51:42.990Z,34.27
2022-12-11T00:56:37.857Z,33.97
2022-12-11T01:01:31.437Z,29.80
2022-12-11T01:06:27.839Z,26.90
2022-12-11T01:11:21.551Z,29.90
2022-12-11T01:16:17.514Z,25.23
2022-12-11T01:21:14.919Z,26.73
2022-12-11T01:26:11.372Z,31.20
2022-12-11T01:31:09.418Z,25.13
2022-12-11T01:36:10.171Z,25.43
2022-12-11T01:41:03.804Z,26.70
2022-12-11T01:45:57.331Z,25.47
2022-12-11T01:50:54.724Z,25.90
2022-12-11T01:55:52.760Z,24.97
2022-12-11T02:00:46.151Z,24.53
2022-12-11T02:05:39.894Z,24.03
2022-12-11T02:10:55.993Z,26.70
2022-12-11T02:15:59.955Z,24.27
2022-12-11T02:21:04.461Z,21.67
2022-12-11T02:26:22.970Z,27.57
2022-12-11T02:31:25.162Z,25.87
2022-12-11T02:36:23.460Z,24.07
2022-12-11T02:41:17.837Z,28.60
2022-12-11T02:46:13.477Z,24.20
2022-12-11T02:51:12.414Z,24.80
2022-12-11T02:56:12.457Z,21.97
2022-12-11T03:01:06.637Z,25.93
2022-12-11T03:06:00.187Z,28.13
2022-12-11T03:10:55.021Z,27.10
2022-12-11T03:16:06.028Z,27.10
2022-12-11T03:21:09.405Z,28.67
2022-12-11T03:26:09.922Z,28.30
2022-12-11T19:55:57.532Z,15.03
2022-12-11T20:00:51.399Z,16.87
2022-12-11T20:05:47.677Z,21.00
2022-12-11T20:10:42.782Z,19.53
2022-12-11T20:15:41.768Z,16.37
2022-12-11T20:20:39.449Z,19.37
2022-12-11T20:25:33.058Z,22.63
2022-12-11T20:30:32.241Z,20.00
2022-12-11T20:35:28.976Z,17.73
2022-12-11T20:40:22.647Z,18.97
2022-12-11T20:45:16.471Z,17.07
2022-12-11T20:50:11.156Z,17.70
2022-12-11T20:55:07.635Z,18.33
2022-12-11T21:05:13.814Z,16.80
2022-12-11T21:10:10.793Z,18.73
2022-12-11T21:15:04.717Z,18.77
2022-12-11T21:19:58.286Z,18.40
2022-12-11T21:24:52.220Z,38.77
2022-12-11T21:29:46.990Z,29.77
2022-12-11T21:34:40.526Z,19.77
2022-12-11T21:39:39.139Z,18.07
2022-12-11T21:49:47.973Z,18.87
2022-12-11T21:54:42.639Z,21.07
2022-12-11T21:59:36.636Z,19.83
2022-12-11T22:04:30.095Z,23.10
2022-12-11T22:09:24.816Z,24.63
2022-12-11T22:14:19.303Z,27.97
2022-12-11T22:19:13.078Z,27.97
2022-12-11T22:24:07.130Z,26.70
2022-12-11T22:34:09.873Z,27.57
2022-12-11T23:20:03.685Z,28.07
2022-12-11T23:29:57.712Z,25.37
2022-12-11T23:34:51.141Z,29.87
2022-12-11T23:39:45.918Z,26.07
2022-12-11T23:44:39.203Z,26.20
2022-12-11T23:49:32.654Z,28.27
2022-12-11T23:54:26.287Z,26.70
2022-12-11T23:59:21.278Z,30.97
